ADDS METAR Data INFO
IDs: Format: Raw Decoded Include TAF

Data at: 1600 UTC 12 Dec 2017

KPPO 121555Z AUTO 31014G19KT 2 1/2SM -SN M06/M09 A3002 RMK AO2 SKY OBSCURED T10561089
KPPO 121535Z AUTO 30011G21KT 1 1/4SM -SN BKN003 BKN010 OVC030 M06/M09 A3002 RMK AO2 T10561087
KPPO 121515Z AUTO 33012KT 1/2SM -SN OVC003 M06/M08 A3001 RMK AO2 T10601077
KPPO 121455Z AUTO 34010KT 1/2SM SN BKN004 OVC007 M06/M07 A3000 RMK AO2 T10601075
KPPO 121435Z AUTO 32013G19KT 4SM -SN SCT011 BKN022 BKN028 M05/M10 A3000 RMK AO2 T10541098
KPPO 121415Z AUTO 32013G22KT 1 1/4SM -SN SCT007 BKN013 OVC021 M06/M08 A2999 RMK AO2 T10561084
KPPO 121355Z AUTO 32013G16KT 1 1/4SM -SN BKN007 OVC015 M06/M07 A2999 RMK AO2 T10581075
KPPO 121335Z AUTO 32014G17KT 3/4SM -SN BKN004 BKN009 OVC015 M06/M08 A2999 RMK AO2 T10601077
KPPO 121315Z AUTO 31014G21KT 1 1/4SM -SN SCT009 BKN020 OVC075 M05/M08 A2999 RMK AO2 T10551077
KPPO 121255Z AUTO 34015G22KT 7SM SCT030 BKN075 OVC095 M05/M10 A2998 RMK AO2 T10491102
KPPO 121235Z AUTO 34015G24KT 3SM -SN SCT015 BKN040 OVC095 M05/M09 A2997 RMK AO2 T10501092
KPPO 121215Z AUTO 32017G26KT 2 1/2SM -SN SCT017 BKN075 OVC100 M05/M09 A2996 RMK AO2 T10501094
KPPO 121155Z AUTO 33018G25KT 1 1/2SM -SN SCT015 BKN047 OVC090 M05/M08 A2996 RMK AO2 VIS 1V3 T10511085 10000 21052
KPPO 121135Z AUTO 32018G24KT 1 3/4SM -SN SCT017 BKN031 OVC065 M05/M08 A2995 RMK AO2 VIS 3/4V5 T10471085
KPPO 121115Z AUTO 33014G27KT 4SM -SN SCT024 SCT044 OVC100 M05/M10 A2994 RMK AO2 T10461100
KPPO 121055Z AUTO 34020G26KT 5SM HZ SCT042 SCT080 OVC100 M04/M10 A2994 RMK AO2 T10441105
KPPO 121035Z AUTO 35018G27KT 2 1/2SM -SN SCT039 SCT060 OVC100 M04/M10 A2994 RMK AO2 VIS 1 1/4V4 T10421098
KPPO 121015Z AUTO 32016G27KT 2 1/2SM -SN SCT040 SCT050 OVC100 M04/M09 A2993 RMK AO2 VIS 1V5 T10421095
KPPO 120955Z AUTO 33020G28KT 2SM -SN SCT025 BKN046 OVC100 M04/M08 A2992 RMK AO2 VIS 1V4 T10401084
KPPO 120935Z AUTO 33019G27KT 1 1/4SM -SN BKN010 BKN029 OVC048 M04/M07 A2991 RMK AO2 T10381069
KPPO 120915Z AUTO 34024G32KT 1 3/4SM -SN SCT008 BKN019 OVC065 M03/M07 A2990 RMK AO2 T10351066
KPPO 120855Z AUTO 32017G27KT 1 3/4SM -SN SCT011 BKN023 OVC049 M03/M06 A2990 RMK AO2 T10331063
KPPO 120835Z AUTO 32019G27KT 10SM SCT041 BKN049 OVC080 M02/M08 A2989 RMK AO2 T10221081
KPPO 120815Z AUTO 34021G28KT 7SM BKN039 BKN050 OVC080 M02/M07 A2988 RMK AO2 T10171075
KPPO 120755Z AUTO 32020G24KT 7SM SCT028 BKN035 OVC075 M01/M06 A2988 RMK AO2 T10131061
KPPO 120735Z AUTO 34019G28KT 7SM BKN027 BKN033 OVC075 M01/M05 A2987 RMK AO2 T10101054
KPPO 120715Z AUTO 34020G30KT 7SM SCT025 BKN035 OVC075 00/M05 A2985 RMK AO2 T10031047
KPPO 120655Z AUTO 32016G25KT 10SM BKN029 BKN050 OVC110 00/M05 A2985 RMK AO2 T00001047
KPPO 120635Z AUTO 33014G22KT 10SM SCT025 SCT070 OVC110 00/M04 A2984 RMK AO2 T00001036
KPPO 120615Z AUTO 33017G26KT 10SM SCT090 OVC110 00/M03 A2983 RMK AO2 T00001034
KPPO 120555Z AUTO 34016G25KT 10SM SCT095 OVC110 00/M03 A2983 RMK AO2 T00001031 10013 21012 400131065
KPPO 120535Z AUTO 33014G25KT 10SM SCT015 OVC095 00/M03 A2982 RMK AO2 T00001026
KPPO 120515Z AUTO 34016G24KT 10SM BKN013 OVC095 00/M02 A2982 RMK AO2 T00021022
KPPO 120455Z AUTO 33017G26KT 10SM BKN013 OVC095 00/M02 A2981 RMK AO2 T00031018
KPPO 120435Z AUTO 33018G27KT 10SM BKN013 BKN085 01/M01 A2980 RMK AO2 T00071014
KPPO 120415Z AUTO 33016G27KT 7SM SCT013 01/M01 A2979 RMK AO2 T00121008
KPPO 120355Z AUTO 32014G20KT 7SM CLR 01/00 A2977 RMK AO2 T00121005
KPPO 120335Z AUTO 32013KT 7SM SCT012 SCT080 BKN120 01/00 A2976 RMK AO2 T00101003
KPPO 120315Z AUTO 32012G15KT 5SM BR SCT004 BKN095 01/00 A2975 RMK AO2 T00051001
KPPO 120255Z AUTO 32009KT 3SM BR OVC004 00/00 A2975 RMK AO2 T00001005
KPPO 120235Z AUTO 32005KT 3SM -SN M01/M01 A2974 RMK AO2 SKY OBSCURED T10061012
KPPO 120215Z AUTO 33003KT 3SM -SN M01/M01 A2974 RMK AO2 SKY OBSCURED T10101015
KPPO 120155Z AUTO 35005KT 1 3/4SM -SN VV007 M01/M01 A2974 RMK AO2 T10081015
KPPO 120135Z AUTO 34006KT 2SM -SN M01/M02 A2974 RMK AO2 SKY OBSCURED T10081017
KPPO 120115Z AUTO 35006KT 2SM -SN M01/M02 A2974 RMK AO2 SKY OBSCURED T10081020
KPPO 120055Z AUTO 36009KT 5SM -SN CLR 00/M03 A2973 RMK AO2 T10031026
KPPO 120035Z AUTO 35010KT 10SM SCT042 SCT055 SCT065 00/M03 A2973 RMK AO2 T10051030
KPPO 120015Z AUTO 02004KT 10SM SCT070 BKN090 BKN120 M01/M03 A2971 RMK AO2 T10091031
KPPO 112355Z AUTO 04004KT 10SM SCT120 M01/M03 A2971 RMK AO2 T10091035 10000 21015
KPPO 112335Z AUTO 05004KT 10SM SCT110 M01/M03 A2970 RMK AO2 T10081035
KPPO 112315Z AUTO 05004KT 10SM SCT110 M01/M04 A2971 RMK AO2 T10101036
KPPO 112255Z AUTO 10005KT 10SM SCT120 M01/M04 A2970 RMK AO2 T10131038
KPPO 112235Z AUTO 11005KT 10SM SCT120 M01/M04 A2970 RMK AO2 T10111037
KPPO 112215Z AUTO 09005KT 10SM SCT120 M01/M03 A2970 RMK AO2 T10071035
KPPO 112155Z AUTO 13006KT 10SM SCT110 M01/M04 A2970 RMK AO2 T10081036
KPPO 112135Z AUTO 14005KT 10SM SCT110 00/M03 A2970 RMK AO2 T10021034
KPPO 112115Z AUTO 12007KT 10SM CLR 00/M03 A2969 RMK AO2 T00001035
KPPO 112055Z AUTO 12008KT 10SM CLR 00/M03 A2969 RMK AO2 T10011035
KPPO 112035Z AUTO 13009KT 10SM CLR 00/M03 A2969 RMK AO2 T00001035
KPPO 112015Z AUTO 13009KT 10SM CLR 00/M03 A2970 RMK AO2 T00001035
KPPO 111955Z AUTO 13009KT 10SM CLR 00/M04 A2972 RMK AO2 T10051036
KPPO 111935Z AUTO 13009KT 10SM CLR 00/M04 A2973 RMK AO2 T10021038
KPPO 111915Z AUTO 14008KT 10SM CLR 00/M04 A2974 RMK AO2 T00001040
KPPO 111855Z AUTO 15007KT 10SM SCT065 SCT075 SCT110 00/M04 A2975 RMK AO2 T00001042
KPPO 111835Z AUTO 15006KT 10SM BKN110 00/M04 A2978 RMK AO2 T10031041
KPPO 111815Z AUTO 15007KT 10SM SCT095 SCT120 00/M04 A2979 RMK AO2 T10051045
KPPO 111755Z AUTO 16008G15KT 10SM SCT110 M01/M05 A2980 RMK AO2 T10081047 11008 21045
KPPO 111735Z AUTO 16010G14KT 10SM CLR M01/M05 A2982 RMK AO2 T10111049
KPPO 111715Z AUTO 16009KT 10SM CLR M01/M05 A2985 RMK AO2 T10131050
KPPO 111655Z AUTO 17006KT 10SM CLR M01/M05 A2987 RMK AO2 T10151051
KPPO 111635Z AUTO 17008KT 10SM SCT070 M01/M05 A2988 RMK AO2 T10151051
KPPO 111615Z AUTO 17006KT 10SM OVC070 M02/M05 A2990 RMK AO2 T10181055
KPPO 111555Z AUTO 18005KT 10SM BKN070 M02/M05 A2992 RMK AO2 T10211055
KPPO 111535Z AUTO 19007KT 10SM OVC060 M02/M06 A2993 RMK AO2 T10241056
KPPO 111515Z AUTO 18006KT 10SM OVC060 M03/M06 A2993 RMK AO2 T10261057
KPPO 111455Z AUTO 19006G09KT 10SM BKN065 BKN070 M03/M06 A2994 RMK AO2 T10281060
KPPO 111435Z AUTO 19009KT 10SM SCT070 M03/M06 A2996 RMK AO2 T10291061
KPPO 111415Z AUTO 20007KT 10SM CLR M03/M06 A2998 RMK AO2 T10301061
KPPO 111355Z AUTO 20004KT 10SM CLR M03/M06 A2998 RMK AO2 T10351061
KPPO 111335Z AUTO 17004KT 10SM SCT070 SCT085 M04/M06 A2998 RMK AO2 T10381063
KPPO 111315Z AUTO 17005KT 10SM SCT047 BKN070 OVC085 M04/M06 A2998 RMK AO2 T10401065
KPPO 111255Z AUTO 16005KT 10SM SCT044 SCT050 BKN095 M04/M07 A2998 RMK AO2 T10421067
KPPO 111235Z AUTO 16004KT 7SM SCT037 SCT044 SCT050 M04/M07 A3000 RMK AO2 T10411070
KPPO 111215Z AUTO 18004KT 10SM BKN065 BKN070 OVC080 M04/M07 A3002 RMK AO2 T10401070
KPPO 111155Z AUTO 00000KT 10SM SCT065 OVC090 M04/M07 A3003 RMK AO2 T10451070 11019 21065
KPPO 111135Z AUTO 00000KT 10SM SCT060 BKN075 OVC085 M04/M07 A3003 RMK AO2 T10421070
KPPO 111115Z AUTO 00000KT 10SM SCT085 OVC100 M04/M07 A3003 RMK AO2 T10451072
KPPO 111055Z AUTO 24003KT 10SM BKN110 M05/M07 A3003 RMK AO2 T10491073
KPPO 111035Z AUTO 22004KT 10SM SCT120 M05/M08 A3002 RMK AO2 T10551076
KPPO 111015Z AUTO 22004KT 10SM CLR M06/M08 A3002 RMK AO2 T10641082
KPPO 110955Z AUTO 21004KT 10SM SCT110 M05/M07 A3002 RMK AO2 T10521075
KPPO 110935Z AUTO 22004KT 10SM SCT090 BKN110 M05/M08 A3002 RMK AO2 T10551077
KPPO 110915Z AUTO 23004KT 10SM SCT024 SCT080 BKN110 M04/M07 A3003 RMK AO2 T10421070
KPPO 110855Z AUTO 24003KT 10SM OVC110 M03/M06 A3004 RMK AO2 T10341065
KPPO 110835Z AUTO 23004KT 10SM SCT024 OVC110 M03/M06 A3004 RMK AO2 T10321065
KPPO 110815Z AUTO 23005KT 10SM SCT026 OVC110 M03/M06 A3005 RMK AO2 T10311065
KPPO 110755Z AUTO 25004KT 10SM SCT026 SCT080 OVC110 M03/M06 A3006 RMK AO2 T10271063
KPPO 110735Z AUTO 25003KT 10SM BKN026 BKN070 OVC090 M03/M06 A3006 RMK AO2 T10271061
KPPO 110715Z AUTO 25003KT 10SM BKN026 BKN080 BKN090 M02/M06 A3005 RMK AO2 T10241058
KPPO 110655Z AUTO 25003KT 10SM BKN026 BKN080 M02/M06 A3006 RMK AO2 T10221056
KPPO 110635Z AUTO 26004KT 10SM BKN028 M02/M05 A3006 RMK AO2 T10201055
KPPO 110615Z AUTO 25004KT 10SM BKN028 M02/M06 A3006 RMK AO2 T10211056
KPPO 110555Z AUTO 28003KT 10SM BKN028 M02/M05 A3006 RMK AO2 T10181053 11005 21019 400071097
KPPO 110535Z AUTO 00000KT 10SM BKN028 BKN065 BKN085 M01/M05 A3006 RMK AO2 T10151053
KPPO 110515Z AUTO 00000KT 10SM SCT090 OVC110 M01/M05 A3007 RMK AO2 T10141053
KPPO 110455Z AUTO 00000KT 10SM SCT090 OVC110 M01/M05 A3006 RMK AO2 T10131053
KPPO 110435Z AUTO 32004KT 10SM OVC110 M01/M05 A3007 RMK AO2 T10131053
KPPO 110415Z AUTO 32007KT 10SM SCT095 OVC110 M01/M05 A3006 RMK AO2 T10121053